Decoded Metar for UWUU (UFA in RUSSIA) (IATA:UFA) | Meteo·Mobile Aviation Weather
aviador You're here:

UWUU Decoded Metar

UFA in RUSSIA
Report Time2019-02-18 09:30:00
UTC Time2019-02-18 10:06:47
Flight Rules ifr IFR
Wind120° at 10 kt
W.Decomp.*RWY 14: 8.4 kt HW 5.4 kt LCW
W.Rank120° ranks 9
Current wind is above 120° avg. (6.1)
Visibility1800 m
Phenomena:Snow
Clouds:Overcast 011 Hf
Expected CloudBase > 400 ft AGL from Temp-Dew spread
Ceiling1,100 ft
Temp-2°C (ISA -16)
Dew Point-3°C (93% RH)
AAT-8.0°C
QNH0984 hPa
Density Alt-453 ft
Elevation449 ft
Report Wrong Elevation
Raw Report
UWUU 180930Z 12005MPS 1800 R14R/1800 SN OVC011 M02/M03 Q0984
R14R/690540 NOSIG RMK QFE728/0971=

Extra information for UWUU:More info

Metar Taf Metar & Taf Last 4 Metars F.Rules Stats Wind Profile Meteogram Temp Stats Airport Information Weather charts Add Link Nearby VenuesMetar ALERT Operation Metar Decoded Social comments